sensor_id;sensor_type;location;lat;lon;timestamp;P1;durP1;ratioP1;P2;durP2;ratioP2
52608;SDS011;38503;48.544;12.142;2023-02-15T00:01:50;33.87;;;18.17;;
52608;SDS011;38503;48.544;12.142;2023-02-15T00:04:20;34.50;;;18.23;;
52608;SDS011;38503;48.544;12.142;2023-02-15T00:06:49;40.73;;;19.27;;
52608;SDS011;38503;48.544;12.142;2023-02-15T00:09:16;31.10;;;17.77;;
52608;SDS011;38503;48.544;12.142;2023-02-15T00:11:43;37.70;;;17.57;;
52608;SDS011;38503;48.544;12.142;2023-02-15T00:14:17;26.17;;;16.43;;
52608;SDS011;38503;48.544;12.142;2023-02-15T00:16:49;33.87;;;17.80;;
52608;SDS011;38503;48.544;12.142;2023-02-15T00:19:18;28.27;;;16.23;;
52608;SDS011;38503;48.544;12.142;2023-02-15T00:21:46;29.40;;;17.93;;
52608;SDS011;38503;48.544;12.142;2023-02-15T00:24:14;41.37;;;18.53;;
52608;SDS011;38503;48.544;12.142;2023-02-15T00:26:42;36.13;;;17.87;;
52608;SDS011;38503;48.544;12.142;2023-02-15T00:29:10;39.27;;;17.80;;
52608;SDS011;38503;48.544;12.142;2023-02-15T00:31:38;28.07;;;18.33;;
52608;SDS011;38503;48.544;12.142;2023-02-15T00:34:05;30.20;;;18.07;;
52608;SDS011;38503;48.544;12.142;2023-02-15T00:36:36;29.63;;;18.40;;
52608;SDS011;38503;48.544;12.142;2023-02-15T00:39:03;30.20;;;19.33;;
52608;SDS011;38503;48.544;12.142;2023-02-15T00:41:31;34.10;;;20.07;;
52608;SDS011;38503;48.544;12.142;2023-02-15T00:43:58;34.20;;;19.73;;
52608;SDS011;38503;48.544;12.142;2023-02-15T00:46:26;35.47;;;17.97;;
52608;SDS011;38503;48.544;12.142;2023-02-15T00:48:53;32.27;;;17.53;;
52608;SDS011;38503;48.544;12.142;2023-02-15T00:51:20;41.53;;;17.77;;
52608;SDS011;38503;48.544;12.142;2023-02-15T00:53:47;37.87;;;18.50;;
52608;SDS011;38503;48.544;12.142;2023-02-15T00:56:14;41.07;;;21.47;;
52608;SDS011;38503;48.544;12.142;2023-02-15T00:58:41;31.00;;;18.97;;
52608;SDS011;38503;48.544;12.142;2023-02-15T01:01:12;32.33;;;18.47;;
52608;SDS011;38503;48.544;12.142;2023-02-15T01:03:41;32.00;;;18.23;;
52608;SDS011;38503;48.544;12.142;2023-02-15T01:06:08;32.80;;;18.13;;
52608;SDS011;38503;48.544;12.142;2023-02-15T01:08:36;33.73;;;18.87;;
52608;SDS011;38503;48.544;12.142;2023-02-15T01:11:04;32.83;;;19.00;;
52608;SDS011;38503;48.544;12.142;2023-02-15T01:13:32;30.57;;;18.20;;
52608;SDS011;38503;48.544;12.142;2023-02-15T01:16:00;31.30;;;17.90;;
52608;SDS011;38503;48.544;12.142;2023-02-15T01:18:27;32.33;;;18.07;;
52608;SDS011;38503;48.544;12.142;2023-02-15T01:20:54;31.17;;;17.60;;
52608;SDS011;38503;48.544;12.142;2023-02-15T01:23:21;31.00;;;18.00;;
52608;SDS011;38503;48.544;12.142;2023-02-15T01:25:48;41.57;;;17.80;;
52608;SDS011;38503;48.544;12.142;2023-02-15T01:28:14;31.70;;;17.33;;
52608;SDS011;38503;48.544;12.142;2023-02-15T01:30:41;29.10;;;17.67;;
52608;SDS011;38503;48.544;12.142;2023-02-15T01:33:09;39.77;;;19.03;;
52608;SDS011;38503;48.544;12.142;2023-02-15T01:35:44;37.70;;;17.87;;
52608;SDS011;38503;48.544;12.142;2023-02-15T01:38:12;33.77;;;19.53;;
52608;SDS011;38503;48.544;12.142;2023-02-15T01:40:40;32.50;;;18.23;;
52608;SDS011;38503;48.544;12.142;2023-02-15T01:43:09;40.87;;;18.90;;
52608;SDS011;38503;48.544;12.142;2023-02-15T01:45:37;40.13;;;19.00;;
52608;SDS011;38503;48.544;12.142;2023-02-15T01:48:26;34.10;;;18.97;;
52608;SDS011;38503;48.544;12.142;2023-02-15T01:50:58;35.23;;;20.60;;
52608;SDS011;38503;48.544;12.142;2023-02-15T01:53:32;32.30;;;19.30;;
52608;SDS011;38503;48.544;12.142;2023-02-15T01:56:11;33.20;;;19.50;;
52608;SDS011;38503;48.544;12.142;2023-02-15T01:58:43;36.23;;;17.97;;
52608;SDS011;38503;48.544;12.142;2023-02-15T02:01:11;33.33;;;19.37;;
52608;SDS011;38503;48.544;12.142;2023-02-15T02:03:41;37.47;;;21.13;;
52608;SDS011;38503;48.544;12.142;2023-02-15T02:06:15;36.27;;;20.70;;
52608;SDS011;38503;48.544;12.142;2023-02-15T02:08:42;40.77;;;19.90;;
52608;SDS011;38503;48.544;12.142;2023-02-15T02:11:10;40.17;;;21.10;;
52608;SDS011;38503;48.544;12.142;2023-02-15T02:13:38;43.27;;;20.70;;
52608;SDS011;38503;48.544;12.142;2023-02-15T02:23:57;38.47;;;19.30;;
52608;SDS011;38503;48.544;12.142;2023-02-15T02:34:50;51.77;;;24.43;;
52608;SDS011;38503;48.544;12.142;2023-02-15T02:37:28;54.93;;;23.57;;
52608;SDS011;38503;48.544;12.142;2023-02-15T02:43:01;41.70;;;21.33;;
52608;SDS011;38503;48.544;12.142;2023-02-15T02:45:52;42.00;;;22.03;;
52608;SDS011;38503;48.544;12.142;2023-02-15T02:48:27;38.00;;;21.93;;
52608;SDS011;38503;48.544;12.142;2023-02-15T02:50:58;37.63;;;20.63;;
52608;SDS011;38503;48.544;12.142;2023-02-15T02:53:25;37.40;;;19.73;;
52608;SDS011;38503;48.544;12.142;2023-02-15T02:55:59;36.27;;;19.83;;
52608;SDS011;38503;48.544;12.142;2023-02-15T02:58:45;33.63;;;18.23;;
52608;SDS011;38503;48.544;12.142;2023-02-15T03:01:20;39.37;;;20.20;;
52608;SDS011;38503;48.544;12.142;2023-02-15T03:03:56;42.50;;;20.03;;
52608;SDS011;38503;48.544;12.142;2023-02-15T03:06:30;31.00;;;18.20;;
52608;SDS011;38503;48.544;12.142;2023-02-15T03:09:15;33.37;;;18.97;;
52608;SDS011;38503;48.544;12.142;2023-02-15T03:11:49;38.27;;;19.93;;
52608;SDS011;38503;48.544;12.142;2023-02-15T03:14:17;37.63;;;18.90;;
52608;SDS011;38503;48.544;12.142;2023-02-15T03:16:46;33.27;;;19.00;;
52608;SDS011;38503;48.544;12.142;2023-02-15T03:19:19;33.80;;;18.80;;
52608;SDS011;38503;48.544;12.142;2023-02-15T03:21:57;36.73;;;19.73;;
52608;SDS011;38503;48.544;12.142;2023-02-15T03:27:19;36.07;;;19.10;;
52608;SDS011;38503;48.544;12.142;2023-02-15T03:29:49;39.33;;;19.30;;
52608;SDS011;38503;48.544;12.142;2023-02-15T03:32:19;32.90;;;18.17;;
52608;SDS011;38503;48.544;12.142;2023-02-15T03:34:47;29.63;;;17.90;;
52608;SDS011;38503;48.544;12.142;2023-02-15T03:37:16;34.67;;;19.70;;
52608;SDS011;38503;48.544;12.142;2023-02-15T03:40:37;33.73;;;18.20;;
52608;SDS011;38503;48.544;12.142;2023-02-15T03:45:57;40.63;;;19.40;;
52608;SDS011;38503;48.544;12.142;2023-02-15T03:48:36;30.27;;;18.43;;
52608;SDS011;38503;48.544;12.142;2023-02-15T03:51:08;32.63;;;18.47;;
52608;SDS011;38503;48.544;12.142;2023-02-15T03:53:57;34.67;;;17.87;;
52608;SDS011;38503;48.544;12.142;2023-02-15T03:56:25;32.50;;;18.07;;
52608;SDS011;38503;48.544;12.142;2023-02-15T03:58:52;29.53;;;18.10;;
52608;SDS011;38503;48.544;12.142;2023-02-15T04:01:38;30.87;;;18.10;;
52608;SDS011;38503;48.544;12.142;2023-02-15T04:04:28;33.20;;;18.67;;
52608;SDS011;38503;48.544;12.142;2023-02-15T04:06:57;32.73;;;19.17;;
52608;SDS011;38503;48.544;12.142;2023-02-15T04:09:23;30.93;;;18.07;;
52608;SDS011;38503;48.544;12.142;2023-02-15T04:12:09;32.10;;;18.67;;
52608;SDS011;38503;48.544;12.142;2023-02-15T04:14:35;36.70;;;19.10;;
52608;SDS011;38503;48.544;12.142;2023-02-15T04:17:21;33.90;;;19.27;;
52608;SDS011;38503;48.544;12.142;2023-02-15T04:19:48;40.40;;;19.90;;
52608;SDS011;38503;48.544;12.142;2023-02-15T04:22:33;33.77;;;19.70;;
52608;SDS011;38503;48.544;12.142;2023-02-15T04:25:18;32.90;;;19.47;;
52608;SDS011;38503;48.544;12.142;2023-02-15T04:27:50;31.87;;;19.90;;
52608;SDS011;38503;48.544;12.142;2023-02-15T04:30:19;36.93;;;17.83;;
52608;SDS011;38503;48.544;12.142;2023-02-15T04:32:47;30.70;;;19.17;;
52608;SDS011;38503;48.544;12.142;2023-02-15T04:35:14;32.03;;;19.83;;
52608;SDS011;38503;48.544;12.142;2023-02-15T04:37:41;33.57;;;19.43;;
52608;SDS011;38503;48.544;12.142;2023-02-15T04:40:10;34.83;;;20.13;;
52608;SDS011;38503;48.544;12.142;2023-02-15T04:42:39;29.67;;;17.40;;
52608;SDS011;38503;48.544;12.142;2023-02-15T04:45:06;34.50;;;19.30;;
52608;SDS011;38503;48.544;12.142;2023-02-15T04:47:33;31.70;;;18.83;;
52608;SDS011;38503;48.544;12.142;2023-02-15T04:50:00;34.80;;;19.77;;
52608;SDS011;38503;48.544;12.142;2023-02-15T04:52:27;34.70;;;20.47;;
52608;SDS011;38503;48.544;12.142;2023-02-15T04:54:54;32.50;;;19.40;;
52608;SDS011;38503;48.544;12.142;2023-02-15T04:57:20;32.40;;;19.67;;
52608;SDS011;38503;48.544;12.142;2023-02-15T04:59:47;34.13;;;20.07;;
52608;SDS011;38503;48.544;12.142;2023-02-15T05:02:14;35.87;;;19.23;;
52608;SDS011;38503;48.544;12.142;2023-02-15T05:04:41;33.80;;;19.83;;
52608;SDS011;38503;48.544;12.142;2023-02-15T05:07:07;32.47;;;19.40;;
52608;SDS011;38503;48.544;12.142;2023-02-15T05:09:34;33.77;;;19.97;;
52608;SDS011;38503;48.544;12.142;2023-02-15T05:12:01;35.20;;;19.67;;
52608;SDS011;38503;48.544;12.142;2023-02-15T05:14:28;33.93;;;19.97;;
52608;SDS011;38503;48.544;12.142;2023-02-15T05:16:54;30.47;;;18.73;;
52608;SDS011;38503;48.544;12.142;2023-02-15T05:19:21;35.03;;;18.67;;
52608;SDS011;38503;48.544;12.142;2023-02-15T05:21:50;29.27;;;18.30;;
52608;SDS011;38503;48.544;12.142;2023-02-15T05:24:17;36.10;;;20.67;;
52608;SDS011;38503;48.544;12.142;2023-02-15T05:27:02;36.37;;;20.57;;
52608;SDS011;38503;48.544;12.142;2023-02-15T05:29:48;35.23;;;21.20;;
52608;SDS011;38503;48.544;12.142;2023-02-15T05:32:15;31.33;;;18.93;;
52608;SDS011;38503;48.544;12.142;2023-02-15T05:34:42;34.53;;;19.83;;
52608;SDS011;38503;48.544;12.142;2023-02-15T05:37:08;37.03;;;20.53;;
52608;SDS011;38503;48.544;12.142;2023-02-15T05:39:35;34.80;;;20.33;;
52608;SDS011;38503;48.544;12.142;2023-02-15T05:42:02;37.40;;;21.27;;
52608;SDS011;38503;48.544;12.142;2023-02-15T05:44:29;33.70;;;20.30;;
52608;SDS011;38503;48.544;12.142;2023-02-15T05:46:56;35.07;;;19.70;;
52608;SDS011;38503;48.544;12.142;2023-02-15T05:49:23;34.13;;;20.13;;
52608;SDS011;38503;48.544;12.142;2023-02-15T05:51:49;40.60;;;22.13;;
52608;SDS011;38503;48.544;12.142;2023-02-15T05:54:16;33.93;;;20.47;;
52608;SDS011;38503;48.544;12.142;2023-02-15T05:56:43;33.70;;;20.30;;
52608;SDS011;38503;48.544;12.142;2023-02-15T05:59:10;36.33;;;21.30;;
52608;SDS011;38503;48.544;12.142;2023-02-15T06:01:37;38.10;;;20.30;;
52608;SDS011;38503;48.544;12.142;2023-02-15T06:04:03;34.37;;;19.60;;
52608;SDS011;38503;48.544;12.142;2023-02-15T06:06:30;35.63;;;20.83;;
52608;SDS011;38503;48.544;12.142;2023-02-15T06:08:57;38.17;;;19.67;;
52608;SDS011;38503;48.544;12.142;2023-02-15T06:11:24;33.33;;;19.50;;
52608;SDS011;38503;48.544;12.142;2023-02-15T06:13:51;36.43;;;20.73;;
52608;SDS011;38503;48.544;12.142;2023-02-15T06:16:17;38.83;;;21.67;;
52608;SDS011;38503;48.544;12.142;2023-02-15T06:18:44;31.13;;;18.53;;
52608;SDS011;38503;48.544;12.142;2023-02-15T06:21:11;32.27;;;19.37;;
52608;SDS011;38503;48.544;12.142;2023-02-15T06:23:38;29.90;;;18.23;;
52608;SDS011;38503;48.544;12.142;2023-02-15T06:26:05;34.13;;;19.33;;
52608;SDS011;38503;48.544;12.142;2023-02-15T06:28:31;32.20;;;19.13;;
52608;SDS011;38503;48.544;12.142;2023-02-15T06:30:58;30.87;;;18.10;;
52608;SDS011;38503;48.544;12.142;2023-02-15T06:33:25;32.17;;;19.30;;
52608;SDS011;38503;48.544;12.142;2023-02-15T06:35:52;37.83;;;19.80;;
52608;SDS011;38503;48.544;12.142;2023-02-15T06:38:19;37.27;;;20.63;;
52608;SDS011;38503;48.544;12.142;2023-02-15T06:40:46;33.30;;;19.87;;
52608;SDS011;38503;48.544;12.142;2023-02-15T06:43:13;32.53;;;19.67;;
52608;SDS011;38503;48.544;12.142;2023-02-15T06:45:40;33.90;;;19.70;;
52608;SDS011;38503;48.544;12.142;2023-02-15T06:48:07;33.53;;;19.70;;
52608;SDS011;38503;48.544;12.142;2023-02-15T06:50:34;32.40;;;19.43;;
52608;SDS011;38503;48.544;12.142;2023-02-15T06:53:01;33.73;;;19.63;;
52608;SDS011;38503;48.544;12.142;2023-02-15T06:55:28;33.83;;;20.20;;
52608;SDS011;38503;48.544;12.142;2023-02-15T06:57:54;31.47;;;19.83;;
52608;SDS011;38503;48.544;12.142;2023-02-15T07:00:21;33.20;;;19.67;;
52608;SDS011;38503;48.544;12.142;2023-02-15T07:02:56;34.00;;;20.37;;
52608;SDS011;38503;48.544;12.142;2023-02-15T07:05:26;34.53;;;20.33;;
52608;SDS011;38503;48.544;12.142;2023-02-15T07:07:57;30.50;;;18.80;;
52608;SDS011;38503;48.544;12.142;2023-02-15T07:10:25;35.97;;;21.07;;
52608;SDS011;38503;48.544;12.142;2023-02-15T07:12:52;33.17;;;18.77;;
52608;SDS011;38503;48.544;12.142;2023-02-15T07:15:19;36.10;;;20.20;;
52608;SDS011;38503;48.544;12.142;2023-02-15T07:17:47;33.30;;;19.87;;
52608;SDS011;38503;48.544;12.142;2023-02-15T07:20:15;33.70;;;20.93;;
52608;SDS011;38503;48.544;12.142;2023-02-15T07:22:44;30.90;;;19.60;;
52608;SDS011;38503;48.544;12.142;2023-02-15T07:25:12;31.77;;;19.33;;
52608;SDS011;38503;48.544;12.142;2023-02-15T07:27:39;32.17;;;18.70;;
52608;SDS011;38503;48.544;12.142;2023-02-15T07:30:07;31.87;;;18.03;;
52608;SDS011;38503;48.544;12.142;2023-02-15T07:32:35;31.80;;;16.87;;
52608;SDS011;38503;48.544;12.142;2023-02-15T07:35:02;35.50;;;18.33;;
52608;SDS011;38503;48.544;12.142;2023-02-15T07:37:36;31.57;;;17.10;;
52608;SDS011;38503;48.544;12.142;2023-02-15T07:40:03;27.77;;;16.93;;
52608;SDS011;38503;48.544;12.142;2023-02-15T07:42:31;35.40;;;18.70;;
52608;SDS011;38503;48.544;12.142;2023-02-15T07:44:57;31.70;;;18.53;;
52608;SDS011;38503;48.544;12.142;2023-02-15T07:47:24;32.93;;;19.07;;
52608;SDS011;38503;48.544;12.142;2023-02-15T07:49:52;30.73;;;18.27;;
52608;SDS011;38503;48.544;12.142;2023-02-15T07:52:19;31.10;;;18.03;;
52608;SDS011;38503;48.544;12.142;2023-02-15T07:54:46;31.87;;;19.17;;
52608;SDS011;38503;48.544;12.142;2023-02-15T07:57:13;31.27;;;18.80;;
52608;SDS011;38503;48.544;12.142;2023-02-15T07:59:40;30.10;;;18.27;;
52608;SDS011;38503;48.544;12.142;2023-02-15T08:02:10;30.53;;;18.10;;
52608;SDS011;38503;48.544;12.142;2023-02-15T08:04:36;29.83;;;17.97;;
52608;SDS011;38503;48.544;12.142;2023-02-15T08:07:03;30.97;;;18.40;;
52608;SDS011;38503;48.544;12.142;2023-02-15T08:09:30;30.13;;;19.07;;
52608;SDS011;38503;48.544;12.142;2023-02-15T08:11:57;28.23;;;17.63;;
52608;SDS011;38503;48.544;12.142;2023-02-15T08:14:23;27.07;;;16.13;;
52608;SDS011;38503;48.544;12.142;2023-02-15T08:16:51;26.13;;;16.33;;
52608;SDS011;38503;48.544;12.142;2023-02-15T08:21:50;28.40;;;17.23;;
52608;SDS011;38503;48.544;12.142;2023-02-15T08:24:27;30.87;;;17.33;;
52608;SDS011;38503;48.544;12.142;2023-02-15T08:26:55;28.33;;;16.50;;
52608;SDS011;38503;48.544;12.142;2023-02-15T08:29:24;27.33;;;16.03;;
52608;SDS011;38503;48.544;12.142;2023-02-15T08:31:54;25.80;;;17.07;;
52608;SDS011;38503;48.544;12.142;2023-02-15T08:34:25;27.43;;;15.73;;
52608;SDS011;38503;48.544;12.142;2023-02-15T08:36:52;33.17;;;15.63;;
52608;SDS011;38503;48.544;12.142;2023-02-15T08:39:18;30.93;;;16.80;;
52608;SDS011;38503;48.544;12.142;2023-02-15T08:41:46;32.07;;;18.47;;
52608;SDS011;38503;48.544;12.142;2023-02-15T08:44:14;29.80;;;16.37;;
52608;SDS011;38503;48.544;12.142;2023-02-15T08:46:43;28.57;;;17.03;;
52608;SDS011;38503;48.544;12.142;2023-02-15T08:49:13;28.00;;;17.13;;
52608;SDS011;38503;48.544;12.142;2023-02-15T08:51:46;29.00;;;16.43;;
52608;SDS011;38503;48.544;12.142;2023-02-15T08:54:18;26.73;;;15.87;;
52608;SDS011;38503;48.544;12.142;2023-02-15T08:56:47;24.30;;;15.33;;
52608;SDS011;38503;48.544;12.142;2023-02-15T08:59:15;22.90;;;14.80;;
52608;SDS011;38503;48.544;12.142;2023-02-15T09:01:44;31.63;;;16.87;;
52608;SDS011;38503;48.544;12.142;2023-02-15T09:04:11;27.93;;;16.13;;
52608;SDS011;38503;48.544;12.142;2023-02-15T09:06:39;23.17;;;15.10;;
52608;SDS011;38503;48.544;12.142;2023-02-15T09:09:08;24.90;;;16.40;;
52608;SDS011;38503;48.544;12.142;2023-02-15T09:11:39;25.03;;;14.17;;
52608;SDS011;38503;48.544;12.142;2023-02-15T09:14:09;25.80;;;15.33;;
52608;SDS011;38503;48.544;12.142;2023-02-15T09:16:39;25.03;;;14.83;;
52608;SDS011;38503;48.544;12.142;2023-02-15T09:19:07;23.37;;;15.20;;
52608;SDS011;38503;48.544;12.142;2023-02-15T09:21:35;24.60;;;15.23;;
52608;SDS011;38503;48.544;12.142;2023-02-15T09:24:04;25.70;;;15.37;;
52608;SDS011;38503;48.544;12.142;2023-02-15T09:26:34;23.10;;;15.27;;
52608;SDS011;38503;48.544;12.142;2023-02-15T09:29:03;23.93;;;14.70;;
52608;SDS011;38503;48.544;12.142;2023-02-15T09:31:31;24.90;;;15.30;;
52608;SDS011;38503;48.544;12.142;2023-02-15T09:34:00;26.57;;;14.63;;
52608;SDS011;38503;48.544;12.142;2023-02-15T09:36:32;27.67;;;19.03;;
52608;SDS011;38503;48.544;12.142;2023-02-15T09:39:03;24.73;;;16.80;;
52608;SDS011;38503;48.544;12.142;2023-02-15T09:47:34;25.20;;;15.77;;
52608;SDS011;38503;48.544;12.142;2023-02-15T09:50:24;25.83;;;15.93;;
52608;SDS011;38503;48.544;12.142;2023-02-15T09:53:11;26.67;;;15.87;;
52608;SDS011;38503;48.544;12.142;2023-02-15T09:56:10;25.83;;;15.80;;
52608;SDS011;38503;48.544;12.142;2023-02-15T10:01:50;29.70;;;16.30;;
52608;SDS011;38503;48.544;12.142;2023-02-15T10:25:47;27.20;;;16.93;;
52608;SDS011;38503;48.544;12.142;2023-02-15T10:28:23;28.53;;;17.60;;
52608;SDS011;38503;48.544;12.142;2023-02-15T10:31:06;29.33;;;17.73;;
52608;SDS011;38503;48.544;12.142;2023-02-15T10:34:15;29.50;;;17.53;;
52608;SDS011;38503;48.544;12.142;2023-02-15T10:48:02;27.40;;;17.97;;
52608;SDS011;38503;48.544;12.142;2023-02-15T10:58:29;30.73;;;17.57;;
52608;SDS011;38503;48.544;12.142;2023-02-15T11:06:09;28.50;;;18.17;;
52608;SDS011;38503;48.544;12.142;2023-02-15T11:08:40;30.93;;;18.63;;
52608;SDS011;38503;48.544;12.142;2023-02-15T11:11:13;27.03;;;17.27;;
52608;SDS011;38503;48.544;12.142;2023-02-15T11:13:47;27.63;;;17.30;;
52608;SDS011;38503;48.544;12.142;2023-02-15T11:16:29;28.00;;;17.97;;
52608;SDS011;38503;48.544;12.142;2023-02-15T11:19:06;25.93;;;17.23;;
52608;SDS011;38503;48.544;12.142;2023-02-15T11:21:44;26.43;;;17.50;;
52608;SDS011;38503;48.544;12.142;2023-02-15T11:24:17;25.03;;;17.27;;
52608;SDS011;38503;48.544;12.142;2023-02-15T11:26:48;28.97;;;18.33;;
52608;SDS011;38503;48.544;12.142;2023-02-15T11:29:33;28.53;;;17.73;;
52608;SDS011;38503;48.544;12.142;2023-02-15T11:32:12;29.77;;;19.17;;
52608;SDS011;38503;48.544;12.142;2023-02-15T11:35:32;23.50;;;16.73;;
52608;SDS011;38503;48.544;12.142;2023-02-15T11:43:04;26.80;;;18.63;;
52608;SDS011;38503;48.544;12.142;2023-02-15T11:45:38;26.37;;;17.23;;
52608;SDS011;38503;48.544;12.142;2023-02-15T11:48:08;26.47;;;17.50;;
52608;SDS011;38503;48.544;12.142;2023-02-15T11:50:37;27.50;;;18.43;;
52608;SDS011;38503;48.544;12.142;2023-02-15T11:53:09;25.97;;;17.43;;
52608;SDS011;38503;48.544;12.142;2023-02-15T11:55:39;26.63;;;16.83;;
52608;SDS011;38503;48.544;12.142;2023-02-15T12:01:11;24.40;;;17.07;;
52608;SDS011;38503;48.544;12.142;2023-02-15T12:04:14;25.80;;;17.00;;
52608;SDS011;38503;48.544;12.142;2023-02-15T12:06:48;24.57;;;17.43;;
52608;SDS011;38503;48.544;12.142;2023-02-15T12:09:45;26.33;;;17.70;;
52608;SDS011;38503;48.544;12.142;2023-02-15T12:12:23;29.20;;;20.20;;
52608;SDS011;38503;48.544;12.142;2023-02-15T12:14:55;28.07;;;18.67;;
52608;SDS011;38503;48.544;12.142;2023-02-15T12:17:23;27.23;;;18.23;;
52608;SDS011;38503;48.544;12.142;2023-02-15T12:19:55;28.40;;;18.80;;
52608;SDS011;38503;48.544;12.142;2023-02-15T12:22:30;27.80;;;18.90;;
52608;SDS011;38503;48.544;12.142;2023-02-15T12:25:11;28.20;;;17.20;;
52608;SDS011;38503;48.544;12.142;2023-02-15T12:27:46;28.33;;;18.07;;
52608;SDS011;38503;48.544;12.142;2023-02-15T12:30:34;27.43;;;18.77;;
52608;SDS011;38503;48.544;12.142;2023-02-15T12:33:13;25.07;;;18.50;;
52608;SDS011;38503;48.544;12.142;2023-02-15T12:35:54;27.17;;;17.93;;
52608;SDS011;38503;48.544;12.142;2023-02-15T12:38:28;26.80;;;17.13;;
52608;SDS011;38503;48.544;12.142;2023-02-15T12:41:03;27.87;;;19.23;;
52608;SDS011;38503;48.544;12.142;2023-02-15T12:43:35;27.90;;;18.13;;
52608;SDS011;38503;48.544;12.142;2023-02-15T12:46:14;26.77;;;17.87;;
52608;SDS011;38503;48.544;12.142;2023-02-15T12:48:48;26.97;;;18.23;;
52608;SDS011;38503;48.544;12.142;2023-02-15T12:51:49;27.93;;;17.90;;
52608;SDS011;38503;48.544;12.142;2023-02-15T12:55:02;27.07;;;18.17;;
52608;SDS011;38503;48.544;12.142;2023-02-15T12:57:14;29.17;;;19.30;;
52608;SDS011;38503;48.544;12.142;2023-02-15T13:05:04;33.43;;;20.13;;
52608;SDS011;38503;48.544;12.142;2023-02-15T13:07:45;28.33;;;18.50;;
52608;SDS011;38503;48.544;12.142;2023-02-15T13:10:21;29.60;;;18.90;;
52608;SDS011;38503;48.544;12.142;2023-02-15T13:12:50;29.77;;;19.60;;
52608;SDS011;38503;48.544;12.142;2023-02-15T13:15:28;29.20;;;19.67;;
52608;SDS011;38503;48.544;12.142;2023-02-15T13:18:16;30.83;;;19.80;;
52608;SDS011;38503;48.544;12.142;2023-02-15T13:21:03;28.53;;;19.30;;
52608;SDS011;38503;48.544;12.142;2023-02-15T13:24:33;33.00;;;19.70;;
52608;SDS011;38503;48.544;12.142;2023-02-15T13:26:48;28.77;;;19.37;;
52608;SDS011;38503;48.544;12.142;2023-02-15T13:29:36;29.63;;;19.37;;
52608;SDS011;38503;48.544;12.142;2023-02-15T13:32:06;28.07;;;18.83;;
52608;SDS011;38503;48.544;12.142;2023-02-15T13:34:39;30.60;;;20.60;;
52608;SDS011;38503;48.544;12.142;2023-02-15T13:37:20;30.63;;;20.30;;
52608;SDS011;38503;48.544;12.142;2023-02-15T13:40:18;28.60;;;20.67;;
52608;SDS011;38503;48.544;12.142;2023-02-15T13:42:54;29.77;;;20.47;;
52608;SDS011;38503;48.544;12.142;2023-02-15T13:51:21;32.17;;;19.73;;
52608;SDS011;38503;48.544;12.142;2023-02-15T13:54:26;30.20;;;20.67;;
52608;SDS011;38503;48.544;12.142;2023-02-15T14:15:42;29.60;;;20.93;;
52608;SDS011;38503;48.544;12.142;2023-02-15T14:23:57;34.33;;;22.13;;
52608;SDS011;38503;48.544;12.142;2023-02-15T14:27:10;34.90;;;23.17;;
52608;SDS011;38503;48.544;12.142;2023-02-15T14:29:41;36.27;;;23.57;;
52608;SDS011;38503;48.544;12.142;2023-02-15T14:32:25;33.53;;;23.07;;
52608;SDS011;38503;48.544;12.142;2023-02-15T14:35:13;36.17;;;23.93;;
52608;SDS011;38503;48.544;12.142;2023-02-15T14:37:48;37.03;;;23.73;;
52608;SDS011;38503;48.544;12.142;2023-02-15T14:44:01;38.80;;;22.50;;
52608;SDS011;38503;48.544;12.142;2023-02-15T14:47:00;36.13;;;23.77;;
52608;SDS011;38503;48.544;12.142;2023-02-15T14:49:44;34.57;;;23.20;;
52608;SDS011;38503;48.544;12.142;2023-02-15T14:52:11;36.03;;;23.97;;
52608;SDS011;38503;48.544;12.142;2023-02-15T15:05:10;35.10;;;23.53;;
52608;SDS011;38503;48.544;12.142;2023-02-15T15:07:56;39.40;;;24.40;;
52608;SDS011;38503;48.544;12.142;2023-02-15T15:12:53;39.23;;;25.23;;
52608;SDS011;38503;48.544;12.142;2023-02-15T15:31:04;40.37;;;25.73;;
52608;SDS011;38503;48.544;12.142;2023-02-15T15:50:31;43.43;;;26.33;;
52608;SDS011;38503;48.544;12.142;2023-02-15T15:53:00;41.90;;;25.17;;
52608;SDS011;38503;48.544;12.142;2023-02-15T15:55:29;43.33;;;26.47;;
52608;SDS011;38503;48.544;12.142;2023-02-15T15:58:02;44.00;;;26.83;;
52608;SDS011;38503;48.544;12.142;2023-02-15T16:00:36;40.47;;;26.50;;
52608;SDS011;38503;48.544;12.142;2023-02-15T16:03:26;44.33;;;27.17;;
52608;SDS011;38503;48.544;12.142;2023-02-15T16:05:55;37.27;;;25.37;;
52608;SDS011;38503;48.544;12.142;2023-02-15T16:08:30;45.50;;;28.00;;
52608;SDS011;38503;48.544;12.142;2023-02-15T16:11:10;40.37;;;27.03;;
52608;SDS011;38503;48.544;12.142;2023-02-15T16:13:43;44.30;;;27.47;;
52608;SDS011;38503;48.544;12.142;2023-02-15T16:16:11;36.60;;;24.87;;
52608;SDS011;38503;48.544;12.142;2023-02-15T16:18:40;44.87;;;26.37;;
52608;SDS011;38503;48.544;12.142;2023-02-15T16:21:12;41.77;;;25.87;;
52608;SDS011;38503;48.544;12.142;2023-02-15T16:23:50;43.23;;;26.73;;
52608;SDS011;38503;48.544;12.142;2023-02-15T16:29:15;51.03;;;30.37;;
52608;SDS011;38503;48.544;12.142;2023-02-15T16:31:56;52.10;;;26.90;;
52608;SDS011;38503;48.544;12.142;2023-02-15T16:34:32;46.10;;;28.97;;
52608;SDS011;38503;48.544;12.142;2023-02-15T16:37:15;48.03;;;27.47;;
52608;SDS011;38503;48.544;12.142;2023-02-15T16:39:44;48.10;;;29.83;;
52608;SDS011;38503;48.544;12.142;2023-02-15T16:42:14;50.67;;;29.87;;
52608;SDS011;38503;48.544;12.142;2023-02-15T16:44:43;59.63;;;31.93;;
52608;SDS011;38503;48.544;12.142;2023-02-15T16:47:16;45.03;;;27.07;;
52608;SDS011;38503;48.544;12.142;2023-02-15T16:50:05;43.83;;;27.37;;
52608;SDS011;38503;48.544;12.142;2023-02-15T16:52:36;46.57;;;27.90;;
52608;SDS011;38503;48.544;12.142;2023-02-15T16:55:04;46.10;;;28.23;;
52608;SDS011;38503;48.544;12.142;2023-02-15T16:57:33;46.37;;;27.50;;
52608;SDS011;38503;48.544;12.142;2023-02-15T17:00:04;44.20;;;28.93;;
52608;SDS011;38503;48.544;12.142;2023-02-15T17:02:52;51.00;;;30.67;;
52608;SDS011;38503;48.544;12.142;2023-02-15T17:05:30;59.90;;;33.13;;
52608;SDS011;38503;48.544;12.142;2023-02-15T17:08:12;55.87;;;32.80;;
52608;SDS011;38503;48.544;12.142;2023-02-15T17:10:41;51.40;;;29.53;;
52608;SDS011;38503;48.544;12.142;2023-02-15T17:13:15;48.57;;;30.40;;
52608;SDS011;38503;48.544;12.142;2023-02-15T17:15:44;47.30;;;29.10;;
52608;SDS011;38503;48.544;12.142;2023-02-15T17:18:23;51.60;;;29.27;;
52608;SDS011;38503;48.544;12.142;2023-02-15T17:20:51;48.30;;;28.47;;
52608;SDS011;38503;48.544;12.142;2023-02-15T17:23:26;45.70;;;27.20;;
52608;SDS011;38503;48.544;12.142;2023-02-15T17:25:55;46.03;;;27.87;;
52608;SDS011;38503;48.544;12.142;2023-02-15T17:28:29;46.50;;;28.67;;
52608;SDS011;38503;48.544;12.142;2023-02-15T17:30:57;49.73;;;29.10;;
52608;SDS011;38503;48.544;12.142;2023-02-15T17:36:05;46.40;;;28.03;;
52608;SDS011;38503;48.544;12.142;2023-02-15T17:38:32;48.43;;;28.87;;
52608;SDS011;38503;48.544;12.142;2023-02-15T17:40:59;50.57;;;30.37;;